Terminal Aerodrome Forecast
Issued by NWS Sioux Falls, SD

Home | Current Version | Previous Version | Text Only | Print | Product List | Glossary Off
Versions: 1 2 3 4 5 6 7 8 9 10 11 12 13 14 15 16

000
FTUS43 KFSD 141120
TAFFSD
TAF
KFSD 141120Z 1412/1512 31004KT P6SM OVC010
     FM141800 31006KT P6SM VCSH OVC015
     FM142100 31011KT P6SM VCSH OVC020
     FM150300 32007KT P6SM VCSH BKN050
     FM150500 29007KT P6SM BKN060=

USA.gov is the U.S. government's official web portal to all federal, state and local government web resources and services.